Time;durP1;ratioP1;P1;durP2;ratioP2;P2;SDS_P1;SDS_P2;PMS_P1;PMS_P2;Temp;Humidity;BMP_temperature;BMP_pressure;BME280_temperature;BME280_humidity;BME280_pressure;Samples;Min_cycle;Max_cycle;Signal;HPM_P1;HPM_P2
2022/05/18 00:00:27;;;;;;;2.08;1.22;;;;;;;6.90;46.68;101644.34;1643221;86;26278;-78
2022/05/18 00:02:59;;;;;;;2.52;1.65;;;;;;;6.84;46.74;101646.23;1682987;85;25775;-80
2022/05/18 00:05:25;;;;;;;3.27;1.17;;;;;;;6.74;46.85;101646.68;1683115;84;28377;-79
2022/05/18 00:07:52;;;;;;;2.92;1.27;;;;;;;6.66;47.13;101648.70;1682992;84;25907;-79
2022/05/18 00:10:19;;;;;;;2.35;1.12;;;;;;;6.59;47.31;101652.03;1643362;87;25806;-82
2022/05/18 00:12:49;;;;;;;2.55;1.30;;;;;;;6.54;47.45;101643.63;1682871;85;26520;-80
2022/05/18 00:15:19;;;;;;;2.00;1.32;;;;;;;6.49;47.73;101644.03;1683179;84;25311;-79
2022/05/18 00:17:46;;;;;;;;;;;;;;;6.47;47.90;101647.80;1646117;87;27460;-79
2022/05/18 00:20:12;;;;;;;3.45;1.12;;;;;;;6.43;48.13;101656.55;1655367;86;26568;-80
2022/05/18 00:22:55;;;;;;;2.98;1.27;;;;;;;6.40;48.77;101658.14;1650351;85;26008;-79
2022/05/18 00:25:34;;;;;;;2.83;1.47;;;;;;;6.31;48.42;101658.94;1642689;87;26282;-82
2022/05/18 00:28:01;;;;;;;2.47;1.10;;;;;;;6.30;48.60;101662.59;1684365;85;25783;-78
2022/05/18 00:30:29;;;;;;;2.95;1.40;;;;;;;6.31;48.80;101668.76;1643901;86;28244;-80
2022/05/18 00:32:56;;;;;;;2.08;1.35;;;;;;;6.29;48.92;101670.71;1683062;85;25824;-82
2022/05/18 00:35:25;;;;;;;4.05;1.60;;;;;;;6.30;48.89;101677.70;1643204;87;25853;-77
2022/05/18 00:37:52;;;;;;;2.35;1.50;;;;;;;6.27;48.99;101676.63;1683072;85;25818;-80
2022/05/18 00:40:19;;;;;;;2.62;1.27;;;;;;;6.24;48.99;101680.42;1643178;87;26474;-81
2022/05/18 00:42:46;;;;;;;1.87;1.22;;;;;;;6.21;49.00;101688.17;1643646;86;27546;-79
2022/05/18 00:45:14;;;;;;;4.42;1.50;;;;;;;6.17;49.31;101694.73;1682943;85;25848;-80
2022/05/18 00:47:40;;;;;;;2.70;1.52;;;;;;;6.13;49.17;101692.47;1643115;86;25855;-80
2022/05/18 00:50:12;;;;;;;3.33;1.42;;;;;;;6.12;49.54;101698.27;1682706;85;25737;-78
2022/05/18 00:52:44;;;;;;;2.47;1.30;;;;;;;6.10;49.77;101698.03;1683042;85;25835;-79
2022/05/18 00:55:15;;;;;;;2.15;1.40;;;;;;;6.05;49.73;101702.41;1657227;85;27482;-80
2022/05/18 00:57:46;;;;;;;2.35;1.42;;;;;;;6.00;49.99;101699.33;1670776;85;25972;-79
2022/05/18 01:00:17;;;;;;;3.10;1.20;;;;;;;5.96;50.21;101702.38;1640629;86;25721;-78
2022/05/18 01:02:54;;;;;;;4.10;1.60;;;;;;;5.90;50.41;101710.88;1643798;87;26052;-78
2022/05/18 01:05:28;;;;;;;2.55;1.40;;;;;;;5.84;50.61;101707.38;1679497;85;25710;-79
2022/05/18 01:07:58;;;;;;;4.17;1.32;;;;;;;5.80;50.75;101711.23;1641945;87;27497;-79
2022/05/18 01:10:29;;;;;;;2.08;1.27;;;;;;;5.74;50.94;101717.08;1683409;85;25942;-79
2022/05/18 01:12:57;;;;;;;6.22;2.33;;;;;;;5.68;51.12;101717.59;1643287;85;25808;-80
2022/05/18 01:15:24;;;;;;;5.22;1.27;;;;;;;5.64;51.21;101712.17;1643402;87;26378;-79
2022/05/18 01:17:57;;;;;;;4.10;2.15;;;;;;;5.61;51.45;101719.06;1682961;85;25899;-78
2022/05/18 01:20:27;;;;;;;3.60;1.70;;;;;;;5.57;51.48;101717.16;1643139;87;27675;-78
2022/05/18 01:23:20;;;;;;;3.27;1.32;;;;;;;5.55;51.65;101722.23;1683124;85;25922;-79
2022/05/18 01:26:19;;;;;;;5.35;1.72;;;;;;;5.50;51.75;101726.60;1672740;85;26638;-79
2022/05/18 01:28:52;;;;;;;4.00;1.52;;;;;;;5.42;51.94;101728.58;1643709;87;25677;-79
2022/05/18 01:31:21;;;;;;;6.65;1.92;;;;;;;5.35;52.17;101728.71;1643229;87;26629;-82
2022/05/18 01:33:47;;;;;;;2.70;1.45;;;;;;;5.29;52.26;101731.87;1679533;85;27606;-80
2022/05/18 01:36:14;;;;;;;5.37;1.27;;;;;;;5.20;52.45;101733.94;1643270;87;26080;-79
2022/05/18 01:38:42;;;;;;;2.35;1.50;;;;;;;5.12;52.70;101742.17;1683019;85;26359;-79
2022/05/18 01:41:19;;;;;;;3.00;1.45;;;;;;;4.98;53.15;101736.67;1643432;87;26218;-80
2022/05/18 01:43:55;;;;;;;2.87;1.40;;;;;;;4.91;53.26;101739.44;1642861;87;25849;-80
2022/05/18 01:46:22;;;;;;;4.70;1.70;;;;;;;4.87;53.40;101745.97;1641550;86;27480;-79
2022/05/18 01:48:52;;;;;;;4.62;1.60;;;;;;;4.81;53.55;101742.95;1677147;85;25875;-79
2022/05/18 01:51:43;;;;;;;2.42;1.55;;;;;;;4.80;53.69;101747.41;1665473;85;25363;-80
2022/05/18 01:54:10;;;;;;;3.00;1.30;;;;;;;4.78;53.81;101741.86;1683001;85;25800;-81
2022/05/18 01:56:37;;;;;;;3.20;1.30;;;;;;;4.73;53.98;101746.70;1643198;87;25834;-80
2022/05/18 01:59:04;;;;;;;2.42;1.50;;;;;;;4.73;53.71;101748.86;1683029;85;28346;-78
2022/05/18 02:01:30;;;;;;;4.35;1.62;;;;;;;4.76;53.82;101750.42;1643058;87;25415;-79
2022/05/18 02:03:57;;;;;;;3.70;1.87;;;;;;;4.79;54.11;101751.02;1683211;85;25785;-79
2022/05/18 02:06:23;;;;;;;4.53;1.60;;;;;;;4.80;54.12;101757.17;1683598;84;26115;-78
2022/05/18 02:08:50;;;;;;;4.05;1.52;;;;;;;4.79;54.13;101758.16;1642763;87;26017;-79
2022/05/18 02:11:20;;;;;;;3.67;1.50;;;;;;;4.78;54.11;101759.11;1669919;85;27454;-79
2022/05/18 02:13:47;;;;;;;2.00;1.20;;;;;;;4.76;54.29;101751.28;1643558;87;25857;-78
2022/05/18 02:16:14;;;;;;;4.00;1.35;;;;;;;4.77;54.35;101754.28;1683785;85;25845;-80
2022/05/18 02:18:40;;;;;;;3.72;1.60;;;;;;;4.78;54.36;101748.02;1683798;85;26011;-78
2022/05/18 02:21:09;;;;;;;2.75;1.95;;;;;;;4.78;54.60;101746.69;1642305;87;25847;-81
2022/05/18 02:23:37;;;;;;;2.60;1.90;;;;;;;4.77;54.74;101756.11;1682674;85;28385;-81
2022/05/18 02:26:14;;;;;;;5.75;1.65;;;;;;;4.66;54.76;101765.74;1683311;84;25892;-80
2022/05/18 02:28:41;;;;;;;2.67;1.65;;;;;;;4.62;54.99;101761.64;1670719;84;25984;-80
2022/05/18 02:31:08;;;;;;;3.30;1.55;;;;;;;4.58;55.19;101765.50;1650021;85;26562;-79
2022/05/18 02:33:34;;;;;;;3.60;1.72;;;;;;;4.56;55.15;101773.22;1643218;87;25946;-79
2022/05/18 02:36:00;;;;;;;5.15;1.87;;;;;;;4.54;55.26;101779.98;1683269;85;28066;-79
2022/05/18 02:38:27;;;;;;;7.40;1.90;;;;;;;4.55;55.53;101776.37;1643476;87;26527;-79
2022/05/18 02:40:59;;;;;;;5.95;2.10;;;;;;;4.54;55.54;101773.34;1682988;85;25772;-78
2022/05/18 02:43:27;;;;;;;5.37;1.70;;;;;;;4.48;55.52;101777.81;1682614;84;25763;-79
2022/05/18 02:46:07;;;;;;;3.02;1.92;;;;;;;4.41;55.86;101785.02;1643724;86;26000;-80
2022/05/18 02:48:33;;;;;;;5.95;1.50;;;;;;;4.34;56.06;101796.58;1658794;85;27474;-80
2022/05/18 02:50:59;;;;;;;3.17;1.22;;;;;;;4.29;56.08;101794.78;1642059;86;25879;-80
2022/05/18 02:53:26;;;;;;;5.40;1.55;;;;;;;4.25;56.20;101797.30;1673201;85;25805;-79
2022/05/18 02:56:08;;;;;;;3.35;1.77;;;;;;;4.19;56.44;101796.42;1673534;85;25891;-79
2022/05/18 02:58:50;;;;;;;3.00;1.60;;;;;;;4.05;56.60;101798.44;1684861;84;25935;-79
2022/05/18 03:01:26;;;;;;;4.60;1.55;;;;;;;3.92;56.90;101803.81;1684661;84;27682;-79
2022/05/18 03:03:53;;;;;;;2.05;1.57;;;;;;;3.85;57.21;101818.47;1684719;84;26548;-79
2022/05/18 03:06:24;;;;;;;5.15;1.42;;;;;;;3.73;57.32;101818.92;1643136;86;25766;-78
2022/05/18 03:08:51;;;;;;;2.95;1.65;;;;;;;3.68;57.33;101823.70;1682952;85;25637;-80
2022/05/18 03:11:18;;;;;;;3.65;1.85;;;;;;;3.65;57.47;101831.90;1643133;87;25991;-81
2022/05/18 03:13:44;;;;;;;2.05;1.75;;;;;;;3.66;57.90;101832.72;1682698;85;27496;-79
2022/05/18 03:16:11;;;;;;;5.72;1.90;;;;;;;3.68;58.13;101841.40;1682587;84;26002;-79
2022/05/18 03:18:38;;;;;;;3.70;2.22;;;;;;;3.66;58.23;101844.17;1643267;86;25805;-80
2022/05/18 03:23:49;;;;;;;13.18;6.25;;;;;;;3.72;58.66;101850.84;1642967;87;25797;-82
2022/05/18 03:26:20;;;;;;;8.28;3.55;;;;;;;3.76;58.96;101856.28;1682442;85;27715;-80
2022/05/18 03:28:48;;;;;;;;;;;;;;;3.83;59.08;101854.37;1645660;87;26742;-79
2022/05/18 03:31:15;;;;;;;5.15;2.52;;;;;;;3.86;59.19;101854.64;1645260;86;25894;-79
2022/05/18 03:33:41;;;;;;;4.92;2.42;;;;;;;3.86;59.13;101860.79;1668588;85;25771;-79
2022/05/18 03:36:10;;;;;;;3.25;2.60;;;;;;;3.93;59.29;101863.33;1668369;85;26560;-80
2022/05/18 03:38:37;;;;;;;5.65;2.37;;;;;;;3.98;59.38;101866.97;1662944;85;27514;-80
2022/05/18 03:41:03;;;;;;;5.15;2.50;;;;;;;4.04;59.29;101873.64;1670150;85;25934;-78
2022/05/18 03:43:29;;;;;;;6.35;2.50;;;;;;;4.11;59.31;101873.06;1670482;85;25911;-80
2022/05/18 03:45:58;;;;;;;10.00;2.65;;;;;;;4.18;59.46;101880.93;1682693;85;25879;-82
2022/05/18 03:48:24;;;;;;;5.30;1.92;;;;;;;4.20;59.42;101879.01;1643091;87;25932;-79
2022/05/18 03:50:54;;;;;;;3.77;2.45;;;;;;;4.21;59.20;101883.84;1682825;85;27598;-80
2022/05/18 03:53:20;;;;;;;3.75;1.98;;;;;;;4.23;59.35;101876.61;1631590;87;26496;-81
2022/05/18 03:55:47;;;;;;;3.12;2.27;;;;;;;4.33;59.74;101886.41;1682596;85;25933;-80
2022/05/18 03:58:14;;;;;;;4.72;2.15;;;;;;;4.35;59.62;101887.14;1641867;87;25907;-78
2022/05/18 04:00:43;;;;;;;2.45;1.70;;;;;;;4.38;60.01;101889.58;1667610;85;25958;-79
2022/05/18 04:03:10;;;;;;;4.90;2.22;;;;;;;4.43;59.96;101889.20;1670724;85;28306;-78
2022/05/18 04:05:38;;;;;;;4.20;1.77;;;;;;;4.46;60.15;101900.92;1670378;85;25777;-79
2022/05/18 04:08:06;;;;;;;5.35;2.00;;;;;;;4.53;60.30;101897.67;1670431;85;25787;-79
2022/05/18 04:10:33;;;;;;;8.43;2.20;;;;;;;4.61;60.38;101901.94;1659199;85;25865;-79
2022/05/18 04:13:00;;;;;;;3.92;2.40;;;;;;;4.71;60.47;101903.39;1682714;85;25915;-79
2022/05/18 04:15:27;;;;;;;4.42;2.50;;;;;;;4.77;60.52;101895.46;1682717;84;27473;-80
2022/05/18 04:17:54;;;;;;;5.35;1.92;;;;;;;4.90;60.53;101904.17;1643764;87;26605;-80
2022/05/18 04:20:23;;;;;;;3.95;2.40;;;;;;;5.03;60.58;101904.89;1641560;86;25873;-80
2022/05/18 04:22:50;;;;;;;6.37;2.40;;;;;;;5.09;60.57;101911.89;1682851;85;25969;-79
2022/05/18 04:25:21;;;;;;;4.90;2.70;;;;;;;5.14;60.68;101911.06;1682752;84;25865;-80
2022/05/18 04:27:47;;;;;;;3.22;1.95;;;;;;;5.15;60.53;101911.44;1643311;87;27427;-80
2022/05/18 04:30:18;;;;;;;6.20;2.30;;;;;;;5.19;60.58;101905.40;1638884;87;25889;-80
2022/05/18 04:32:45;;;;;;;3.45;2.00;;;;;;;5.25;60.73;101907.56;1671584;85;25599;-80
2022/05/18 04:35:15;;;;;;;6.42;1.70;;;;;;;5.27;60.84;101902.50;1677942;85;26120;-78
2022/05/18 04:37:42;;;;;;;5.40;2.25;;;;;;;5.32;61.12;101906.12;1636991;84;25959;-80
2022/05/18 04:40:09;;;;;;;4.85;1.92;;;;;;;5.32;61.50;101918.08;1680075;84;27648;-80
2022/05/18 04:42:36;;;;;;;3.27;1.27;;;;;;;5.33;61.88;101908.66;1669746;85;26569;-79
2022/05/18 04:45:05;;;;;;;4.12;1.62;;;;;;;5.39;62.03;101909.97;1682998;85;25745;-80
2022/05/18 04:47:32;;;;;;;5.60;1.62;;;;;;;5.44;62.45;101906.00;1676715;84;25977;-79
2022/05/18 04:49:58;;;;;;;4.30;1.57;;;;;;;5.51;62.55;101910.81;1686981;84;26010;-79
2022/05/18 04:52:26;;;;;;;3.85;1.70;;;;;;;5.59;62.63;101912.37;1672600;85;28310;-80
2022/05/18 04:54:52;;;;;;;6.00;1.92;;;;;;;5.71;62.91;101916.72;1643424;85;25744;-79
2022/05/18 04:57:19;;;;;;;4.72;1.57;;;;;;;5.78;62.45;101916.56;1678854;85;25821;-80
2022/05/18 04:59:46;;;;;;;4.10;1.90;;;;;;;5.88;62.94;101920.23;1645272;85;25848;-78
2022/05/18 05:02:14;;;;;;;3.17;1.60;;;;;;;5.96;62.75;101928.42;1676679;85;25753;-82
2022/05/18 05:04:41;;;;;;;3.62;2.05;;;;;;;6.05;62.60;101937.80;1643191;86;27570;-78
2022/05/18 05:07:09;;;;;;;4.25;1.67;;;;;;;6.13;62.49;101929.22;1674872;85;25649;-79
2022/05/18 05:09:37;;;;;;;3.22;1.85;;;;;;;6.18;62.38;101934.50;1677627;84;25820;-80
2022/05/18 05:12:05;;;;;;;4.80;1.98;;;;;;;6.29;62.70;101933.62;1678828;84;26258;-79
2022/05/18 05:14:34;;;;;;;3.58;1.90;;;;;;;6.39;62.10;101938.56;1673795;85;25837;-79
2022/05/18 05:17:01;;;;;;;3.15;1.80;;;;;;;6.51;61.88;101939.34;1644904;85;27473;-78
2022/05/18 05:19:27;;;;;;;2.90;1.70;;;;;;;6.62;61.84;101935.30;1669435;84;26621;-79
2022/05/18 05:21:54;;;;;;;5.78;1.77;;;;;;;6.73;61.67;101940.57;1670595;84;25877;-80
2022/05/18 05:24:20;;;;;;;3.65;1.55;;;;;;;6.87;61.77;101943.75;1670456;84;26464;-78
2022/05/18 05:26:46;;;;;;;6.92;1.77;;;;;;;7.03;61.50;101945.11;1667119;85;25970;-80
2022/05/18 05:29:14;;;;;;;4.10;1.65;;;;;;;7.14;61.20;101949.03;1641288;85;28255;-80
2022/05/18 05:31:40;;;;;;;3.90;1.62;;;;;;;7.25;61.05;101950.30;1681306;84;26021;-81
2022/05/18 05:34:06;;;;;;;12.18;1.90;;;;;;;7.35;60.64;101957.84;1682859;84;25842;-80
2022/05/18 05:36:33;;;;;;;5.47;1.77;;;;;;;7.42;60.79;101958.49;1682845;84;26263;-80
2022/05/18 05:38:59;;;;;;;3.47;1.62;;;;;;;7.55;60.83;101962.27;1683027;84;25852;-80
2022/05/18 05:41:27;;;;;;;2.83;1.50;;;;;;;7.66;60.06;101971.51;1682878;84;27437;-78
2022/05/18 05:43:55;;;;;;;5.78;1.98;;;;;;;7.71;59.73;101962.14;1642844;87;26040;-79
2022/05/18 05:46:21;;;;;;;4.78;1.80;;;;;;;7.80;59.92;101971.16;1683081;85;25312;-81
2022/05/18 05:48:47;;;;;;;3.75;1.98;;;;;;;7.92;59.77;101971.88;1646345;85;25874;-79
2022/05/18 05:51:15;;;;;;;5.10;1.65;;;;;;;8.05;59.48;101970.66;1682408;85;25916;-79
2022/05/18 05:53:44;;;;;;;6.37;1.82;;;;;;;8.15;59.00;101970.66;1639488;85;27498;-80
2022/05/18 05:56:13;;;;;;;3.10;1.95;;;;;;;8.25;59.12;101982.22;1683466;85;25650;-78
2022/05/18 05:58:40;;;;;;;6.22;1.72;;;;;;;8.39;59.08;101976.49;1642586;86;25523;-79
2022/05/18 06:01:09;;;;;;;3.62;2.10;;;;;;;8.53;59.16;101980.92;1683223;85;26216;-80
2022/05/18 06:03:35;;;;;;;6.72;2.05;;;;;;;8.68;58.77;101981.86;1615879;87;26084;-82
2022/05/18 06:06:03;;;;;;;4.33;1.98;;;;;;;8.82;58.59;101988.95;1683295;85;27537;-79
2022/05/18 06:08:31;;;;;;;5.58;2.00;;;;;;;8.94;58.09;101992.33;1641463;87;25343;-79
2022/05/18 06:10:59;;;;;;;3.08;1.65;;;;;;;9.04;57.68;101994.48;1682809;85;25458;-79
2022/05/18 06:13:27;;;;;;;8.30;1.95;;;;;;;9.10;58.08;101991.23;1641702;87;26352;-80
2022/05/18 06:15:53;;;;;;;4.83;2.00;;;;;;;9.23;57.86;101993.11;1683127;85;26024;-80
2022/05/18 06:18:20;;;;;;;5.20;1.82;;;;;;;9.31;57.21;101994.08;1682618;84;27470;-79
2022/05/18 06:20:47;;;;;;;6.35;2.05;;;;;;;9.40;57.26;101989.69;1643286;87;25957;-80
2022/05/18 06:23:15;;;;;;;2.90;1.72;;;;;;;9.51;56.88;101997.55;1682693;85;25823;-80
2022/05/18 06:25:41;;;;;;;4.22;2.75;;;;;;;9.60;56.04;102001.17;1642019;87;25841;-78
2022/05/18 06:28:09;;;;;;;7.17;2.15;;;;;;;9.68;56.05;102000.79;1682739;85;25887;-79
2022/05/18 06:30:36;;;;;;;3.83;1.77;;;;;;;9.81;55.71;102003.98;1643145;87;27498;-81
2022/05/18 06:33:03;;;;;;;11.57;2.02;;;;;;;9.91;56.31;101998.08;1645425;85;26080;-80
2022/05/18 06:35:30;;;;;;;6.42;2.00;;;;;;;10.00;56.41;102001.70;1683085;85;25756;-80
2022/05/18 06:37:57;;;;;;;7.00;1.87;;;;;;;10.09;55.73;101997.61;1641957;87;25753;-79
2022/05/18 06:41:21;;;;;;;5.00;1.65;;;;;;;10.19;55.86;102001.62;1682912;85;25764;-79
2022/05/18 06:42:52;;;;;;;5.40;1.72;;;;;;;10.33;55.47;102010.47;1638859;86;28278;-80
2022/05/18 06:45:18;;;;;;;5.37;2.20;;;;;;;10.44;55.51;102012.94;1680796;85;25803;-81
2022/05/18 06:47:45;;;;;;;6.40;1.80;;;;;;;10.56;55.24;102006.35;1636010;85;25917;-80
2022/05/18 06:50:11;;;;;;;5.35;1.90;;;;;;;10.70;55.43;102007.66;1641322;85;25776;-80
2022/05/18 06:52:37;;;;;;;4.80;1.70;;;;;;;10.82;54.87;102012.64;1682785;85;26746;-80
2022/05/18 06:55:06;;;;;;;3.00;1.90;;;;;;;10.86;54.07;102010.52;1682851;84;26967;-80
2022/05/18 06:57:32;;;;;;;4.85;1.80;;;;;;;10.91;53.87;102014.04;1683264;84;26020;-79
2022/05/18 06:59:58;;;;;;;3.30;1.47;;;;;;;10.96;53.91;102005.05;1643243;87;25924;-80
2022/05/18 07:02:24;;;;;;;3.55;1.62;;;;;;;11.02;53.91;102007.10;1682896;85;25799;-80
2022/05/18 07:04:50;;;;;;;2.83;1.62;;;;;;;11.11;54.13;102012.87;1683275;84;25787;-78
2022/05/18 07:07:17;;;;;;;6.62;1.75;;;;;;;11.23;53.53;102018.33;1682553;84;28984;-79
2022/05/18 07:09:44;;;;;;;5.62;1.60;;;;;;;11.34;53.46;102021.61;1682712;84;25312;-79
2022/05/18 07:12:10;;;;;;;2.37;1.45;;;;;;;11.42;53.75;102020.80;1682711;84;25843;-78
2022/05/18 07:14:36;;;;;;;3.55;1.37;;;;;;;11.54;53.59;102022.25;1641854;87;25814;-80
2022/05/18 07:17:03;;;;;;;3.15;1.47;;;;;;;11.65;52.67;102020.64;1682606;85;25848;-80
2022/05/18 07:19:30;;;;;;;5.70;1.67;;;;;;;11.72;52.27;102032.95;1643168;87;28315;-79
2022/05/18 07:21:56;;;;;;;4.72;1.50;;;;;;;11.75;52.31;102030.78;1682421;85;25816;-80
2022/05/18 07:24:23;;;;;;;3.98;1.55;;;;;;;11.73;51.60;102024.73;1643241;87;25945;-78
2022/05/18 07:26:49;;;;;;;4.12;1.27;;;;;;;11.77;51.75;102018.05;1683319;85;26562;-78
2022/05/18 07:29:15;;;;;;;4.50;1.37;;;;;;;11.91;52.34;102019.30;1643288;86;25996;-80
2022/05/18 07:34:21;;;;;;;2.80;1.25;;;;;;;12.17;52.21;102022.73;1666994;84;25604;-80
2022/05/18 07:36:53;;;;;;;2.47;1.20;;;;;;;12.31;52.74;102017.61;1687619;84;25929;-79
2022/05/18 07:39:20;;;;;;;5.50;0.98;;;;;;;12.40;51.34;102019.28;1687196;84;26472;-81
2022/05/18 07:41:46;;;;;;;3.75;0.98;;;;;;;12.40;49.15;102022.50;1687671;84;25558;-78
2022/05/18 07:44:14;;;;;;;2.00;1.15;;;;;;;12.39;48.11;102016.77;1687347;84;27526;-78
2022/05/18 07:46:40;;;;;;;1.40;0.78;;;;;;;12.40;47.75;102019.28;1643416;85;25901;-78
2022/05/18 07:49:07;;;;;;;3.52;0.72;;;;;;;12.47;48.12;102020.00;1648990;85;26299;-81
2022/05/18 07:51:35;;;;;;;2.22;1.00;;;;;;;12.54;46.77;102030.41;1683031;85;26563;-77
2022/05/18 07:54:01;;;;;;;2.10;0.90;;;;;;;12.59;47.34;102028.08;1643190;86;25980;-77
2022/05/18 07:56:27;;;;;;;2.30;1.07;;;;;;;12.63;47.08;102029.42;1682670;85;27505;-79
2022/05/18 07:58:54;;;;;;;4.85;1.25;;;;;;;12.70;46.52;102029.92;1643016;87;25809;-77
2022/05/18 08:01:21;;;;;;;5.67;1.10;;;;;;;12.70;47.43;102027.23;1682561;85;26094;-81
2022/05/18 08:03:48;;;;;;;2.55;0.60;;;;;;;12.72;46.92;102019.03;1641569;87;25748;-78
2022/05/18 08:06:14;;;;;;;3.92;0.80;;;;;;;12.78;46.01;102019.70;1682429;85;25887;-79
2022/05/18 08:08:41;;;;;;;1.82;0.75;;;;;;;12.78;46.76;102012.98;1660522;85;27866;-79
2022/05/18 08:16:36;;;;;;;3.10;0.90;;;;;;;12.85;44.75;102015.34;1643228;87;25828;-79
2022/05/18 08:19:06;;;;;;;5.78;0.85;;;;;;;12.88;45.25;102016.34;1682803;85;25932;-78
2022/05/18 08:21:31;;;;;;;6.97;0.90;;;;;;;12.95;45.09;102015.52;1682484;85;27791;-77
2022/05/18 08:23:58;;;;;;;5.12;0.70;;;;;;;13.04;45.54;102011.83;1643010;87;26560;-77
2022/05/18 08:26:25;;;;;;;2.55;0.60;;;;;;;13.14;43.99;102013.86;1682568;85;26167;-78
2022/05/18 08:28:52;;;;;;;1.20;0.82;;;;;;;13.22;44.80;102009.47;1643138;87;25983;-79
2022/05/18 08:31:20;;;;;;;2.90;0.70;;;;;;;13.28;42.76;102013.67;1682527;85;26361;-79
2022/05/18 08:33:46;;;;;;;3.00;0.93;;;;;;;13.26;43.76;102013.53;1642862;86;27639;-77
2022/05/18 08:36:14;;;;;;;0.60;0.47;;;;;;;13.30;41.58;102012.98;1682866;85;26092;-78
2022/05/18 08:38:40;;;;;;;1.40;0.60;;;;;;;13.34;42.27;102018.89;1641732;87;25814;-78
2022/05/18 08:41:17;;;;;;;2.85;0.60;;;;;;;13.37;41.25;102016.69;1682628;85;26388;-79
2022/05/18 08:43:48;;;;;;;4.03;1.22;;;;;;;13.46;41.76;102026.44;1673472;85;25910;-78
2022/05/18 08:46:57;;;;;;;2.70;0.70;;;;;;;13.51;40.16;102014.66;1643410;87;27659;-78
2022/05/18 08:49:53;;;;;;;2.27;0.85;;;;;;;13.47;40.25;102017.34;1641704;87;25771;-78
2022/05/18 08:52:32;;;;;;;2.50;0.55;;;;;;;13.52;40.93;102014.98;1682095;85;25881;-78
2022/05/18 08:55:54;;;;;;;1.42;0.60;;;;;;;13.62;41.36;102014.28;1643672;87;25740;-78
2022/05/18 08:58:45;;;;;;;3.47;0.80;;;;;;;13.69;41.61;102009.89;1679277;85;26070;-78
2022/05/18 09:01:15;;;;;;;;;;;;;;;13.80;40.74;102010.02;1645750;87;27459;-79
2022/05/18 09:03:46;;;;;;;1.40;0.68;;;;;;;13.81;39.75;102011.19;1641685;86;25803;-77
2022/05/18 09:06:18;;;;;;;2.37;0.70;;;;;;;13.79;41.01;102007.83;1683041;85;25829;-77
2022/05/18 09:10:12;;;;;;;1.67;1.10;;;;;;;13.83;38.99;102005.65;1640799;85;25797;-79
2022/05/18 09:11:21;;;;;;;1.72;0.78;;;;;;;13.83;39.26;102001.61;1669929;85;25699;-79
2022/05/18 09:13:48;;;;;;;1.95;0.60;;;;;;;13.94;40.38;101999.89;1674727;85;27562;-78
2022/05/18 09:16:28;;;;;;;4.67;0.80;;;;;;;14.06;40.39;101994.44;1642871;87;26186;-79
2022/05/18 09:19:29;;;;;;;5.22;0.70;;;;;;;14.19;41.18;101992.02;1634099;87;25822;-78
2022/05/18 09:22:07;;;;;;;;;;;;;;;14.35;41.31;101991.13;1678493;85;26701;-80
2022/05/18 09:25:00;;;;;;;3.98;0.90;;;;;;;14.42;41.23;101992.08;1670851;85;27838;-79
2022/05/18 09:27:53;;;;;;;4.72;1.30;;;;;;;14.48;41.40;101988.66;1642937;87;28331;-77
2022/05/18 09:30:40;;;;;;;4.92;1.00;;;;;;;14.59;42.89;101989.10;1641648;87;25826;-80
2022/05/18 09:33:12;;;;;;;2.67;0.72;;;;;;;14.68;41.78;101992.08;1682364;85;25924;-78
2022/05/18 09:35:47;;;;;;;4.53;0.70;;;;;;;14.67;41.07;101993.08;1643462;86;26365;-80
2022/05/18 09:38:24;;;;;;;3.00;1.15;;;;;;;14.71;41.86;101986.00;1682479;85;26131;-79
2022/05/18 09:40:51;;;;;;;1.55;1.12;;;;;;;14.76;41.44;101990.31;1617052;87;28342;-79
2022/05/18 09:43:49;;;;;;;3.15;0.90;;;;;;;14.72;40.77;101979.56;1677516;85;25852;-78
2022/05/18 09:46:20;;;;;;;3.52;1.07;;;;;;;14.80;42.13;101983.03;1677273;85;25832;-80
2022/05/18 09:48:57;;;;;;;1.35;0.90;;;;;;;14.89;41.28;101973.86;1643324;87;26371;-78
2022/05/18 09:51:25;;;;;;;2.55;1.42;;;;;;;14.96;42.16;101978.87;1682840;85;25986;-79
2022/05/18 09:53:51;;;;;;;1.75;0.82;;;;;;;15.08;40.51;101980.11;1643271;86;27497;-77
2022/05/18 09:56:24;;;;;;;7.50;1.42;;;;;;;15.15;40.30;101977.52;1682778;85;25389;-77
2022/05/18 09:58:53;;;;;;;3.85;1.00;;;;;;;15.22;41.55;101976.62;1682851;84;25875;-78
2022/05/18 10:10:13;;;;;;;3.00;1.20;;;;;;;15.52;39.68;101980.72;1634693;87;26618;-82
2022/05/18 10:12:46;;;;;;;4.15;2.58;;;;;;;15.50;39.80;101981.42;1653566;85;25970;-78
2022/05/18 10:15:29;;;;;;;3.65;2.52;;;;;;;15.54;39.09;101977.32;1672480;85;26069;-78
2022/05/18 10:18:01;;;;;;;3.90;1.20;;;;;;;15.56;40.09;101973.42;1636982;87;25770;-78
2022/05/18 10:20:32;;;;;;;6.00;0.90;;;;;;;15.65;38.95;101972.31;1668937;84;27523;-78
2022/05/18 10:23:00;;;;;;;2.85;1.02;;;;;;;15.72;38.00;101977.77;1678244;85;26044;-79
2022/05/18 10:25:49;;;;;;;2.60;1.32;;;;;;;15.63;37.55;101980.27;1682971;84;25835;-80
2022/05/18 10:28:29;;;;;;;2.75;1.20;;;;;;;15.57;37.17;101974.27;1642976;87;25790;-79
2022/05/18 10:31:01;;;;;;;4.33;0.80;;;;;;;15.57;37.85;101971.03;1676054;85;25718;-79
2022/05/18 10:33:38;;;;;;;2.77;0.95;;;;;;;15.60;37.55;101960.37;1670598;85;27554;-78
2022/05/18 10:36:15;;;;;;;3.47;1.10;;;;;;;15.71;38.64;101971.55;1638082;87;26528;-78
2022/05/18 10:38:52;;;;;;;1.75;0.90;;;;;;;15.75;37.93;101963.91;1670589;85;25447;-78
2022/05/18 10:41:26;;;;;;;3.90;0.80;;;;;;;15.84;38.89;101948.77;1663150;86;25824;-78
2022/05/18 10:44:04;;;;;;;4.20;0.80;;;;;;;15.94;38.50;101955.22;1662972;86;25776;-77
2022/05/18 10:46:46;;;;;;;4.75;0.88;;;;;;;16.08;38.38;101954.37;1670439;82;28357;-78
2022/05/18 10:49:34;;;;;;;1.57;0.70;;;;;;;16.07;37.47;101954.88;1669873;82;25895;-78
2022/05/18 10:52:33;;;;;;;5.50;0.90;;;;;;;16.10;38.47;101955.83;1653114;85;25876;-79
2022/05/18 10:55:07;;;;;;;4.05;0.80;;;;;;;16.14;36.71;101948.20;1660308;85;26278;-76
2022/05/18 10:57:38;;;;;;;2.98;0.80;;;;;;;16.15;35.93;101946.64;1649220;85;26633;-79
2022/05/18 11:00:13;;;;;;;2.77;0.85;;;;;;;16.12;35.90;101949.72;1673639;84;27459;-78
2022/05/18 11:03:04;;;;;;;1.40;0.72;;;;;;;16.13;35.82;101952.76;1660334;85;25767;-78
2022/05/18 11:05:48;;;;;;;5.65;0.98;;;;;;;16.12;36.78;101938.91;1671863;85;26026;-78
2022/05/18 11:08:18;;;;;;;1.47;0.80;;;;;;;16.24;36.38;101939.26;1671435;85;25869;-79
2022/05/18 11:10:53;;;;;;;3.70;0.90;;;;;;;16.31;38.13;101934.77;1671063;84;26171;-80
2022/05/18 11:13:43;;;;;;;3.85;0.65;;;;;;;16.42;37.36;101930.21;1665945;85;27513;-78
2022/05/18 11:16:33;;;;;;;2.50;0.75;;;;;;;16.47;35.58;101936.36;1665715;85;25791;-79
2022/05/18 11:19:21;;;;;;;2.12;0.60;;;;;;;16.49;34.03;101927.03;1662746;84;25829;-79
2022/05/18 11:22:07;;;;;;;0.85;0.40;;;;;;;16.59;36.60;101928.11;1660834;85;25758;-80
2022/05/18 11:24:51;;;;;;;2.42;0.65;;;;;;;16.71;34.89;101931.45;1615374;87;25800;-80
2022/05/18 11:27:39;;;;;;;0.95;0.72;;;;;;;16.77;35.33;101927.11;1587969;87;28365;-80
2022/05/18 11:30:26;;;;;;;2.65;0.75;;;;;;;16.85;35.65;101931.06;1669633;84;25945;-79
2022/05/18 11:33:16;;;;;;;1.35;0.40;;;;;;;16.89;35.52;101929.64;1662608;85;26057;-79
2022/05/18 11:35:59;;;;;;;2.50;0.45;;;;;;;16.83;33.48;101926.33;1627176;87;25785;-79
2022/05/18 11:42:14;;;;;;;2.00;0.75;;;;;;;16.85;35.15;101932.41;1652294;84;27145;-79
2022/05/18 11:45:08;;;;;;;4.22;0.50;;;;;;;16.97;34.55;101928.13;1658763;85;25809;-78
2022/05/18 11:47:53;;;;;;;1.55;0.68;;;;;;;17.02;33.94;101922.13;1663981;86;26394;-79
2022/05/18 11:50:50;;;;;;;1.12;0.50;;;;;;;17.03;34.06;101915.16;1663361;85;26306;-79
2022/05/18 11:53:47;;;;;;;3.85;0.50;;;;;;;17.13;34.79;101918.34;1664687;85;25986;-78
2022/05/18 11:56:50;;;;;;;3.22;0.75;;;;;;;17.31;35.28;101909.72;1642302;86;27495;-79
2022/05/18 12:00:07;;;;;;;1.27;0.50;;;;;;;17.43;34.45;101917.59;1664553;86;25813;-79
2022/05/18 12:06:34;;;;;;;0.78;0.60;;;;;;;17.47;34.93;101916.19;1655308;84;26536;-77
2022/05/18 12:09:14;;;;;;;3.08;0.57;;;;;;;17.61;34.41;101911.18;1657429;86;26077;-81
2022/05/18 12:12:01;;;;;;;1.15;0.50;;;;;;;17.76;33.85;101911.03;1626049;87;28276;-78
2022/05/18 12:14:45;;;;;;;2.25;0.42;;;;;;;17.84;34.29;101910.34;1673009;84;26139;-79
2022/05/18 12:17:17;;;;;;;1.90;0.50;;;;;;;17.89;33.26;101916.52;1665664;84;25765;-78
2022/05/18 12:20:00;;;;;;;4.58;0.70;;;;;;;17.86;32.58;101911.48;1654642;86;26314;-78